sensor_id;sensor_type;location;lat;lon;timestamp;P1;durP1;ratioP1;P2;durP2;ratioP2
52248;SDS011;38541;48.130;8.378;2023-07-20T00:01:50;1.83;;;1.48;;
52248;SDS011;38541;48.130;8.378;2023-07-20T00:04:17;2.63;;;2.03;;
52248;SDS011;38541;48.130;8.378;2023-07-20T00:06:43;2.70;;;1.75;;
52248;SDS011;38541;48.130;8.378;2023-07-20T00:09:10;2.28;;;2.08;;
52248;SDS011;38541;48.130;8.378;2023-07-20T00:11:37;2.10;;;1.90;;
52248;SDS011;38541;48.130;8.378;2023-07-20T00:14:05;2.70;;;1.65;;
52248;SDS011;38541;48.130;8.378;2023-07-20T00:16:32;2.35;;;2.15;;
52248;SDS011;38541;48.130;8.378;2023-07-20T00:18:59;3.03;;;2.03;;
52248;SDS011;38541;48.130;8.378;2023-07-20T00:21:25;2.40;;;2.20;;
52248;SDS011;38541;48.130;8.378;2023-07-20T00:23:52;3.15;;;2.33;;
52248;SDS011;38541;48.130;8.378;2023-07-20T00:26:19;2.63;;;1.83;;
52248;SDS011;38541;48.130;8.378;2023-07-20T00:28:48;2.05;;;1.80;;
52248;SDS011;38541;48.130;8.378;2023-07-20T00:31:18;3.08;;;2.40;;
52248;SDS011;38541;48.130;8.378;2023-07-20T00:33:45;2.45;;;1.85;;
52248;SDS011;38541;48.130;8.378;2023-07-20T00:36:12;3.85;;;1.58;;
52248;SDS011;38541;48.130;8.378;2023-07-20T00:38:41;2.60;;;2.03;;
52248;SDS011;38541;48.130;8.378;2023-07-20T00:41:08;3.85;;;1.90;;
52248;SDS011;38541;48.130;8.378;2023-07-20T00:46:24;4.55;;;1.90;;
52248;SDS011;38541;48.130;8.378;2023-07-20T00:48:52;2.17;;;1.92;;
52248;SDS011;38541;48.130;8.378;2023-07-20T00:51:20;2.28;;;1.80;;
52248;SDS011;38541;48.130;8.378;2023-07-20T00:53:49;1.83;;;1.70;;
52248;SDS011;38541;48.130;8.378;2023-07-20T00:56:16;3.65;;;2.03;;
52248;SDS011;38541;48.130;8.378;2023-07-20T00:58:43;2.67;;;1.95;;
52248;SDS011;38541;48.130;8.378;2023-07-20T01:01:10;2.30;;;2.10;;
52248;SDS011;38541;48.130;8.378;2023-07-20T01:03:37;3.08;;;2.15;;
52248;SDS011;38541;48.130;8.378;2023-07-20T01:06:09;1.88;;;1.77;;
52248;SDS011;38541;48.130;8.378;2023-07-20T01:11:37;2.07;;;1.60;;
52248;SDS011;38541;48.130;8.378;2023-07-20T01:14:28;2.83;;;1.90;;
52248;SDS011;38541;48.130;8.378;2023-07-20T01:16:55;3.05;;;2.45;;
52248;SDS011;38541;48.130;8.378;2023-07-20T01:19:23;1.92;;;1.73;;
52248;SDS011;38541;48.130;8.378;2023-07-20T01:21:51;2.58;;;2.38;;
52248;SDS011;38541;48.130;8.378;2023-07-20T01:33:17;1.67;;;1.48;;
52248;SDS011;38541;48.130;8.378;2023-07-20T01:35:47;2.60;;;2.40;;
52248;SDS011;38541;48.130;8.378;2023-07-20T01:38:17;3.97;;;1.90;;
52248;SDS011;38541;48.130;8.378;2023-07-20T01:40:48;3.92;;;2.00;;
52248;SDS011;38541;48.130;8.378;2023-07-20T01:43:15;2.20;;;1.75;;
52248;SDS011;38541;48.130;8.378;2023-07-20T01:45:42;1.73;;;1.63;;
52248;SDS011;38541;48.130;8.378;2023-07-20T01:48:09;2.92;;;1.63;;
52248;SDS011;38541;48.130;8.378;2023-07-20T01:50:36;1.65;;;1.55;;
52248;SDS011;38541;48.130;8.378;2023-07-20T01:53:03;2.25;;;2.05;;
52248;SDS011;38541;48.130;8.378;2023-07-20T01:55:29;2.88;;;1.83;;
52248;SDS011;38541;48.130;8.378;2023-07-20T01:57:56;3.33;;;2.00;;
52248;SDS011;38541;48.130;8.378;2023-07-20T02:00:23;6.93;;;2.55;;
52248;SDS011;38541;48.130;8.378;2023-07-20T02:02:51;2.58;;;1.75;;
52248;SDS011;38541;48.130;8.378;2023-07-20T02:05:18;2.83;;;1.75;;
52248;SDS011;38541;48.130;8.378;2023-07-20T02:07:45;4.93;;;1.80;;
52248;SDS011;38541;48.130;8.378;2023-07-20T02:10:16;1.95;;;1.75;;
52248;SDS011;38541;48.130;8.378;2023-07-20T02:12:43;2.00;;;1.70;;
52248;SDS011;38541;48.130;8.378;2023-07-20T02:15:10;2.38;;;2.17;;
52248;SDS011;38541;48.130;8.378;2023-07-20T02:17:37;3.08;;;2.03;;
52248;SDS011;38541;48.130;8.378;2023-07-20T02:20:04;3.55;;;2.28;;
52248;SDS011;38541;48.130;8.378;2023-07-20T02:22:31;3.00;;;2.20;;
52248;SDS011;38541;48.130;8.378;2023-07-20T02:24:57;2.28;;;1.75;;
52248;SDS011;38541;48.130;8.378;2023-07-20T02:27:24;1.90;;;1.80;;
52248;SDS011;38541;48.130;8.378;2023-07-20T02:29:50;2.88;;;2.17;;
52248;SDS011;38541;48.130;8.378;2023-07-20T02:32:17;2.45;;;1.80;;
52248;SDS011;38541;48.130;8.378;2023-07-20T02:34:44;2.40;;;1.90;;
52248;SDS011;38541;48.130;8.378;2023-07-20T02:37:10;4.30;;;2.33;;
52248;SDS011;38541;48.130;8.378;2023-07-20T02:39:39;2.97;;;1.80;;
52248;SDS011;38541;48.130;8.378;2023-07-20T02:42:05;2.42;;;2.22;;
52248;SDS011;38541;48.130;8.378;2023-07-20T02:44:33;4.47;;;2.03;;
52248;SDS011;38541;48.130;8.378;2023-07-20T02:46:59;3.17;;;1.92;;
52248;SDS011;38541;48.130;8.378;2023-07-20T02:49:27;2.40;;;1.80;;
52248;SDS011;38541;48.130;8.378;2023-07-20T02:51:54;2.50;;;2.30;;
52248;SDS011;38541;48.130;8.378;2023-07-20T02:54:21;2.70;;;1.73;;
52248;SDS011;38541;48.130;8.378;2023-07-20T02:56:48;2.92;;;1.80;;
52248;SDS011;38541;48.130;8.378;2023-07-20T03:02:12;2.42;;;2.03;;
52248;SDS011;38541;48.130;8.378;2023-07-20T03:04:39;2.22;;;1.73;;
52248;SDS011;38541;48.130;8.378;2023-07-20T03:07:06;2.75;;;2.10;;
52248;SDS011;38541;48.130;8.378;2023-07-20T03:09:33;4.03;;;2.38;;
52248;SDS011;38541;48.130;8.378;2023-07-20T03:12:00;2.28;;;2.05;;
52248;SDS011;38541;48.130;8.378;2023-07-20T03:14:28;2.22;;;1.83;;
52248;SDS011;38541;48.130;8.378;2023-07-20T03:16:55;3.55;;;2.20;;
52248;SDS011;38541;48.130;8.378;2023-07-20T03:19:22;4.65;;;2.08;;
52248;SDS011;38541;48.130;8.378;2023-07-20T03:21:49;3.67;;;2.65;;
52248;SDS011;38541;48.130;8.378;2023-07-20T03:24:15;2.30;;;2.08;;
52248;SDS011;38541;48.130;8.378;2023-07-20T03:26:42;2.17;;;1.90;;
52248;SDS011;38541;48.130;8.378;2023-07-20T03:29:08;3.38;;;2.25;;
52248;SDS011;38541;48.130;8.378;2023-07-20T03:31:35;2.70;;;2.10;;
52248;SDS011;38541;48.130;8.378;2023-07-20T03:34:01;2.13;;;1.95;;
52248;SDS011;38541;48.130;8.378;2023-07-20T03:36:28;2.30;;;2.10;;
52248;SDS011;38541;48.130;8.378;2023-07-20T03:38:54;2.13;;;1.90;;
52248;SDS011;38541;48.130;8.378;2023-07-20T03:41:21;2.13;;;1.92;;
52248;SDS011;38541;48.130;8.378;2023-07-20T03:43:48;2.28;;;2.00;;
52248;SDS011;38541;48.130;8.378;2023-07-20T03:46:15;2.50;;;2.30;;
52248;SDS011;38541;48.130;8.378;2023-07-20T03:48:42;2.50;;;2.30;;
52248;SDS011;38541;48.130;8.378;2023-07-20T03:51:08;3.10;;;2.22;;
52248;SDS011;38541;48.130;8.378;2023-07-20T03:53:35;2.38;;;2.17;;
52248;SDS011;38541;48.130;8.378;2023-07-20T03:56:01;3.17;;;2.33;;
52248;SDS011;38541;48.130;8.378;2023-07-20T03:58:28;3.35;;;2.22;;
52248;SDS011;38541;48.130;8.378;2023-07-20T04:00:56;2.53;;;1.92;;
52248;SDS011;38541;48.130;8.378;2023-07-20T04:03:24;2.28;;;2.08;;
52248;SDS011;38541;48.130;8.378;2023-07-20T04:05:53;5.32;;;2.58;;
52248;SDS011;38541;48.130;8.378;2023-07-20T04:08:22;2.58;;;2.28;;
52248;SDS011;38541;48.130;8.378;2023-07-20T04:10:50;2.25;;;2.00;;
52248;SDS011;38541;48.130;8.378;2023-07-20T04:13:18;2.45;;;2.25;;
52248;SDS011;38541;48.130;8.378;2023-07-20T04:15:44;3.08;;;2.33;;
52248;SDS011;38541;48.130;8.378;2023-07-20T04:18:11;4.07;;;2.03;;
52248;SDS011;38541;48.130;8.378;2023-07-20T04:20:38;2.40;;;2.00;;
52248;SDS011;38541;48.130;8.378;2023-07-20T04:23:04;3.28;;;2.00;;
52248;SDS011;38541;48.130;8.378;2023-07-20T04:25:31;2.85;;;2.10;;
52248;SDS011;38541;48.130;8.378;2023-07-20T04:28:06;2.55;;;2.03;;
52248;SDS011;38541;48.130;8.378;2023-07-20T04:30:42;3.05;;;2.10;;
52248;SDS011;38541;48.130;8.378;2023-07-20T04:33:09;2.55;;;2.17;;
52248;SDS011;38541;48.130;8.378;2023-07-20T04:35:53;2.53;;;2.10;;
52248;SDS011;38541;48.130;8.378;2023-07-20T04:38:26;2.03;;;1.85;;
52248;SDS011;38541;48.130;8.378;2023-07-20T04:41:01;2.10;;;1.90;;
52248;SDS011;38541;48.130;8.378;2023-07-20T04:43:31;2.72;;;2.33;;
52248;SDS011;38541;48.130;8.378;2023-07-20T04:45:57;2.28;;;2.10;;
52248;SDS011;38541;48.130;8.378;2023-07-20T04:48:24;2.25;;;2.05;;
52248;SDS011;38541;48.130;8.378;2023-07-20T04:50:53;2.83;;;2.22;;
52248;SDS011;38541;48.130;8.378;2023-07-20T04:53:20;3.38;;;2.63;;
52248;SDS011;38541;48.130;8.378;2023-07-20T04:55:48;2.05;;;1.85;;
52248;SDS011;38541;48.130;8.378;2023-07-20T04:58:20;2.97;;;2.25;;
52248;SDS011;38541;48.130;8.378;2023-07-20T05:00:48;2.38;;;2.17;;
52248;SDS011;38541;48.130;8.378;2023-07-20T05:03:16;3.75;;;2.38;;
52248;SDS011;38541;48.130;8.378;2023-07-20T05:05:44;2.45;;;2.25;;
52248;SDS011;38541;48.130;8.378;2023-07-20T05:08:14;3.13;;;2.15;;
52248;SDS011;38541;48.130;8.378;2023-07-20T05:10:42;2.83;;;2.13;;
52248;SDS011;38541;48.130;8.378;2023-07-20T05:13:09;3.33;;;2.40;;
52248;SDS011;38541;48.130;8.378;2023-07-20T05:15:35;2.47;;;2.28;;
52248;SDS011;38541;48.130;8.378;2023-07-20T05:18:03;3.15;;;2.75;;
52248;SDS011;38541;48.130;8.378;2023-07-20T05:20:30;3.13;;;2.45;;
52248;SDS011;38541;48.130;8.378;2023-07-20T05:22:58;2.83;;;2.63;;
52248;SDS011;38541;48.130;8.378;2023-07-20T05:25:25;3.15;;;2.28;;
52248;SDS011;38541;48.130;8.378;2023-07-20T05:27:54;4.97;;;2.60;;
52248;SDS011;38541;48.130;8.378;2023-07-20T05:30:21;3.25;;;2.50;;
52248;SDS011;38541;48.130;8.378;2023-07-20T05:32:48;2.95;;;2.30;;
52248;SDS011;38541;48.130;8.378;2023-07-20T05:35:17;3.15;;;2.75;;
52248;SDS011;38541;48.130;8.378;2023-07-20T05:37:45;4.18;;;2.60;;
52248;SDS011;38541;48.130;8.378;2023-07-20T05:40:12;3.08;;;2.22;;
52248;SDS011;38541;48.130;8.378;2023-07-20T05:42:39;4.00;;;2.40;;
52248;SDS011;38541;48.130;8.378;2023-07-20T05:45:06;3.05;;;2.45;;
52248;SDS011;38541;48.130;8.378;2023-07-20T05:47:33;4.07;;;2.70;;
52248;SDS011;38541;48.130;8.378;2023-07-20T05:50:00;2.90;;;2.35;;
52248;SDS011;38541;48.130;8.378;2023-07-20T05:52:26;2.38;;;2.17;;
52248;SDS011;38541;48.130;8.378;2023-07-20T05:54:53;2.30;;;2.10;;
52248;SDS011;38541;48.130;8.378;2023-07-20T05:57:19;4.68;;;2.30;;
52248;SDS011;38541;48.130;8.378;2023-07-20T05:59:46;5.18;;;2.58;;
52248;SDS011;38541;48.130;8.378;2023-07-20T06:02:13;3.45;;;2.38;;
52248;SDS011;38541;48.130;8.378;2023-07-20T06:04:39;2.80;;;1.90;;
52248;SDS011;38541;48.130;8.378;2023-07-20T06:07:06;2.50;;;2.30;;
52248;SDS011;38541;48.130;8.378;2023-07-20T06:09:34;2.65;;;1.80;;
52248;SDS011;38541;48.130;8.378;2023-07-20T06:12:01;3.35;;;1.83;;
52248;SDS011;38541;48.130;8.378;2023-07-20T06:14:27;2.28;;;2.08;;
52248;SDS011;38541;48.130;8.378;2023-07-20T06:16:54;3.20;;;1.98;;
52248;SDS011;38541;48.130;8.378;2023-07-20T06:19:21;3.75;;;2.00;;
52248;SDS011;38541;48.130;8.378;2023-07-20T06:21:48;2.78;;;1.83;;
52248;SDS011;38541;48.130;8.378;2023-07-20T06:24:16;2.58;;;1.90;;
52248;SDS011;38541;48.130;8.378;2023-07-20T06:26:44;2.45;;;2.25;;
52248;SDS011;38541;48.130;8.378;2023-07-20T06:29:10;3.17;;;2.13;;
52248;SDS011;38541;48.130;8.378;2023-07-20T06:31:37;2.03;;;1.90;;
52248;SDS011;38541;48.130;8.378;2023-07-20T06:34:04;2.83;;;2.42;;
52248;SDS011;38541;48.130;8.378;2023-07-20T06:36:31;2.97;;;2.15;;
52248;SDS011;38541;48.130;8.378;2023-07-20T06:38:58;2.33;;;2.10;;
52248;SDS011;38541;48.130;8.378;2023-07-20T06:41:29;3.25;;;2.45;;
52248;SDS011;38541;48.130;8.378;2023-07-20T06:43:59;3.88;;;2.22;;
52248;SDS011;38541;48.130;8.378;2023-07-20T06:46:26;4.10;;;2.15;;
52248;SDS011;38541;48.130;8.378;2023-07-20T06:48:54;3.53;;;1.83;;
52248;SDS011;38541;48.130;8.378;2023-07-20T06:51:24;2.00;;;1.90;;
52248;SDS011;38541;48.130;8.378;2023-07-20T06:53:52;2.88;;;1.85;;
52248;SDS011;38541;48.130;8.378;2023-07-20T06:56:19;1.92;;;1.70;;
52248;SDS011;38541;48.130;8.378;2023-07-20T06:58:50;3.35;;;1.80;;
52248;SDS011;38541;48.130;8.378;2023-07-20T07:01:18;2.85;;;2.20;;
52248;SDS011;38541;48.130;8.378;2023-07-20T07:03:48;2.08;;;1.70;;
52248;SDS011;38541;48.130;8.378;2023-07-20T07:06:19;2.38;;;1.73;;
52248;SDS011;38541;48.130;8.378;2023-07-20T07:08:49;1.70;;;1.45;;
52248;SDS011;38541;48.130;8.378;2023-07-20T07:11:16;3.25;;;1.80;;
52248;SDS011;38541;48.130;8.378;2023-07-20T07:13:46;2.80;;;2.00;;
52248;SDS011;38541;48.130;8.378;2023-07-20T07:16:16;2.38;;;1.98;;
52248;SDS011;38541;48.130;8.378;2023-07-20T07:18:46;5.10;;;1.85;;
52248;SDS011;38541;48.130;8.378;2023-07-20T07:21:13;2.20;;;1.95;;
52248;SDS011;38541;48.130;8.378;2023-07-20T07:23:41;3.45;;;1.80;;
52248;SDS011;38541;48.130;8.378;2023-07-20T07:26:09;2.42;;;1.88;;
52248;SDS011;38541;48.130;8.378;2023-07-20T07:28:36;2.20;;;1.80;;
52248;SDS011;38541;48.130;8.378;2023-07-20T07:31:06;2.20;;;1.88;;
52248;SDS011;38541;48.130;8.378;2023-07-20T07:33:34;2.60;;;1.90;;
52248;SDS011;38541;48.130;8.378;2023-07-20T07:36:01;1.70;;;1.52;;
52248;SDS011;38541;48.130;8.378;2023-07-20T07:38:28;2.47;;;1.48;;
52248;SDS011;38541;48.130;8.378;2023-07-20T07:41:15;2.83;;;2.10;;
52248;SDS011;38541;48.130;8.378;2023-07-20T07:43:42;2.90;;;2.10;;
52248;SDS011;38541;48.130;8.378;2023-07-20T07:46:09;2.45;;;1.30;;
52248;SDS011;38541;48.130;8.378;2023-07-20T07:48:35;1.60;;;1.50;;
52248;SDS011;38541;48.130;8.378;2023-07-20T07:51:02;2.00;;;1.80;;
52248;SDS011;38541;48.130;8.378;2023-07-20T07:53:29;2.22;;;1.95;;
52248;SDS011;38541;48.130;8.378;2023-07-20T07:55:55;2.00;;;1.55;;
52248;SDS011;38541;48.130;8.378;2023-07-20T07:58:22;1.60;;;1.42;;
52248;SDS011;38541;48.130;8.378;2023-07-20T08:00:48;2.13;;;1.83;;
52248;SDS011;38541;48.130;8.378;2023-07-20T08:03:15;2.28;;;1.95;;
52248;SDS011;38541;48.130;8.378;2023-07-20T08:05:42;1.70;;;1.60;;
52248;SDS011;38541;48.130;8.378;2023-07-20T08:08:08;2.00;;;1.80;;
52248;SDS011;38541;48.130;8.378;2023-07-20T08:10:36;2.13;;;1.50;;
52248;SDS011;38541;48.130;8.378;2023-07-20T08:13:02;1.60;;;1.50;;
52248;SDS011;38541;48.130;8.378;2023-07-20T08:15:29;1.75;;;1.52;;
52248;SDS011;38541;48.130;8.378;2023-07-20T08:17:55;3.03;;;1.65;;
52248;SDS011;38541;48.130;8.378;2023-07-20T08:20:23;2.40;;;1.30;;
52248;SDS011;38541;48.130;8.378;2023-07-20T08:22:54;1.27;;;1.17;;
52248;SDS011;38541;48.130;8.378;2023-07-20T08:25:21;1.55;;;1.42;;
52248;SDS011;38541;48.130;8.378;2023-07-20T08:27:47;1.85;;;1.60;;
52248;SDS011;38541;48.130;8.378;2023-07-20T08:30:14;1.50;;;1.40;;
52248;SDS011;38541;48.130;8.378;2023-07-20T08:32:41;2.03;;;1.70;;
52248;SDS011;38541;48.130;8.378;2023-07-20T08:35:07;1.65;;;1.50;;
52248;SDS011;38541;48.130;8.378;2023-07-20T08:37:34;2.15;;;1.50;;
52248;SDS011;38541;48.130;8.378;2023-07-20T08:40:01;1.55;;;1.35;;
52248;SDS011;38541;48.130;8.378;2023-07-20T08:42:29;2.55;;;1.40;;
52248;SDS011;38541;48.130;8.378;2023-07-20T08:44:56;2.63;;;1.40;;
52248;SDS011;38541;48.130;8.378;2023-07-20T08:47:23;1.63;;;1.48;;
52248;SDS011;38541;48.130;8.378;2023-07-20T08:49:51;1.50;;;1.40;;
52248;SDS011;38541;48.130;8.378;2023-07-20T08:52:20;3.30;;;1.75;;
52248;SDS011;38541;48.130;8.378;2023-07-20T08:54:47;2.05;;;1.52;;
52248;SDS011;38541;48.130;8.378;2023-07-20T08:57:15;1.98;;;1.58;;
52248;SDS011;38541;48.130;8.378;2023-07-20T08:59:43;2.20;;;1.50;;
52248;SDS011;38541;48.130;8.378;2023-07-20T09:02:11;1.20;;;1.10;;
52248;SDS011;38541;48.130;8.378;2023-07-20T09:04:45;2.15;;;1.77;;
52248;SDS011;38541;48.130;8.378;2023-07-20T09:07:11;2.95;;;1.80;;
52248;SDS011;38541;48.130;8.378;2023-07-20T09:09:41;1.65;;;1.55;;
52248;SDS011;38541;48.130;8.378;2023-07-20T09:12:14;1.50;;;1.40;;
52248;SDS011;38541;48.130;8.378;2023-07-20T09:14:43;1.27;;;1.15;;
52248;SDS011;38541;48.130;8.378;2023-07-20T09:17:13;1.23;;;0.93;;
52248;SDS011;38541;48.130;8.378;2023-07-20T09:19:46;1.73;;;1.45;;
52248;SDS011;38541;48.130;8.378;2023-07-20T09:22:14;1.63;;;1.50;;
52248;SDS011;38541;48.130;8.378;2023-07-20T09:24:40;1.60;;;1.50;;
52248;SDS011;38541;48.130;8.378;2023-07-20T09:27:09;2.00;;;1.80;;
52248;SDS011;38541;48.130;8.378;2023-07-20T09:29:50;1.40;;;1.30;;
52248;SDS011;38541;48.130;8.378;2023-07-20T09:32:21;2.92;;;1.27;;
52248;SDS011;38541;48.130;8.378;2023-07-20T09:34:51;1.92;;;1.50;;
52248;SDS011;38541;48.130;8.378;2023-07-20T09:37:22;1.95;;;1.48;;
52248;SDS011;38541;48.130;8.378;2023-07-20T09:39:51;1.10;;;1.00;;
52248;SDS011;38541;48.130;8.378;2023-07-20T09:42:24;1.83;;;1.70;;
52248;SDS011;38541;48.130;8.378;2023-07-20T09:44:54;1.50;;;1.40;;
52248;SDS011;38541;48.130;8.378;2023-07-20T09:47:23;2.85;;;1.50;;
52248;SDS011;38541;48.130;8.378;2023-07-20T09:49:58;1.52;;;1.42;;
52248;SDS011;38541;48.130;8.378;2023-07-20T09:52:29;1.50;;;1.23;;
52248;SDS011;38541;48.130;8.378;2023-07-20T09:55:00;3.67;;;1.35;;
52248;SDS011;38541;48.130;8.378;2023-07-20T09:57:27;2.17;;;1.60;;
52248;SDS011;38541;48.130;8.378;2023-07-20T09:59:55;2.75;;;1.35;;
52248;SDS011;38541;48.130;8.378;2023-07-20T10:02:25;4.35;;;1.55;;
52248;SDS011;38541;48.130;8.378;2023-07-20T10:05:02;1.52;;;1.42;;
52248;SDS011;38541;48.130;8.378;2023-07-20T10:07:34;2.33;;;1.50;;
52248;SDS011;38541;48.130;8.378;2023-07-20T10:10:05;2.08;;;1.50;;
52248;SDS011;38541;48.130;8.378;2023-07-20T10:12:34;3.58;;;1.35;;
52248;SDS011;38541;48.130;8.378;2023-07-20T10:15:06;2.63;;;1.50;;
52248;SDS011;38541;48.130;8.378;2023-07-20T10:17:46;1.73;;;1.63;;
52248;SDS011;38541;48.130;8.378;2023-07-20T10:20:26;1.88;;;1.73;;
52248;SDS011;38541;48.130;8.378;2023-07-20T10:22:54;3.35;;;1.40;;
52248;SDS011;38541;48.130;8.378;2023-07-20T10:25:23;2.22;;;1.27;;
52248;SDS011;38541;48.130;8.378;2023-07-20T10:27:51;1.30;;;1.20;;
52248;SDS011;38541;48.130;8.378;2023-07-20T10:30:18;1.58;;;1.48;;
52248;SDS011;38541;48.130;8.378;2023-07-20T10:32:46;2.40;;;1.60;;
52248;SDS011;38541;48.130;8.378;2023-07-20T10:35:15;1.20;;;1.10;;
52248;SDS011;38541;48.130;8.378;2023-07-20T10:40:28;1.50;;;1.40;;
52248;SDS011;38541;48.130;8.378;2023-07-20T10:43:03;1.60;;;1.45;;
52248;SDS011;38541;48.130;8.378;2023-07-20T10:45:34;6.57;;;1.60;;
52248;SDS011;38541;48.130;8.378;2023-07-20T10:48:17;2.25;;;1.48;;
52248;SDS011;38541;48.130;8.378;2023-07-20T10:50:46;1.88;;;1.30;;
52248;SDS011;38541;48.130;8.378;2023-07-20T10:56:12;1.67;;;1.27;;
52248;SDS011;38541;48.130;8.378;2023-07-20T10:58:41;1.75;;;1.27;;
52248;SDS011;38541;48.130;8.378;2023-07-20T11:01:11;1.50;;;1.40;;
52248;SDS011;38541;48.130;8.378;2023-07-20T11:03:42;3.70;;;1.75;;
52248;SDS011;38541;48.130;8.378;2023-07-20T11:09:08;1.35;;;1.25;;
52248;SDS011;38541;48.130;8.378;2023-07-20T11:11:43;1.77;;;1.35;;
52248;SDS011;38541;48.130;8.378;2023-07-20T11:14:20;1.92;;;1.38;;
52248;SDS011;38541;48.130;8.378;2023-07-20T11:16:52;1.50;;;1.40;;
52248;SDS011;38541;48.130;8.378;2023-07-20T11:19:23;1.30;;;1.20;;
52248;SDS011;38541;48.130;8.378;2023-07-20T11:21:57;1.95;;;1.30;;
52248;SDS011;38541;48.130;8.378;2023-07-20T11:24:30;1.35;;;1.25;;
52248;SDS011;38541;48.130;8.378;2023-07-20T11:26:58;2.75;;;1.60;;
52248;SDS011;38541;48.130;8.378;2023-07-20T11:29:24;2.00;;;1.38;;
52248;SDS011;38541;48.130;8.378;2023-07-20T11:31:59;1.50;;;1.40;;
52248;SDS011;38541;48.130;8.378;2023-07-20T11:34:27;1.45;;;1.20;;
52248;SDS011;38541;48.130;8.378;2023-07-20T11:36:54;1.15;;;1.10;;
52248;SDS011;38541;48.130;8.378;2023-07-20T11:39:24;2.20;;;1.40;;
52248;SDS011;38541;48.130;8.378;2023-07-20T11:41:52;1.30;;;1.20;;
52248;SDS011;38541;48.130;8.378;2023-07-20T11:44:21;1.63;;;1.35;;
52248;SDS011;38541;48.130;8.378;2023-07-20T11:47:00;1.98;;;1.00;;
52248;SDS011;38541;48.130;8.378;2023-07-20T11:49:43;1.10;;;1.00;;
52248;SDS011;38541;48.130;8.378;2023-07-20T11:52:10;1.25;;;1.20;;
52248;SDS011;38541;48.130;8.378;2023-07-20T11:54:39;1.85;;;1.30;;
52248;SDS011;38541;48.130;8.378;2023-07-20T11:57:19;2.95;;;1.48;;
52248;SDS011;38541;48.130;8.378;2023-07-20T12:00:20;2.38;;;1.30;;
52248;SDS011;38541;48.130;8.378;2023-07-20T12:02:40;1.05;;;1.05;;
52248;SDS011;38541;48.130;8.378;2023-07-20T12:05:07;1.30;;;1.20;;
52248;SDS011;38541;48.130;8.378;2023-07-20T12:07:35;2.80;;;2.17;;
52248;SDS011;38541;48.130;8.378;2023-07-20T12:10:06;1.55;;;1.45;;
52248;SDS011;38541;48.130;8.378;2023-07-20T12:12:37;1.33;;;1.10;;
52248;SDS011;38541;48.130;8.378;2023-07-20T12:15:16;1.50;;;1.40;;
52248;SDS011;38541;48.130;8.378;2023-07-20T12:17:50;2.17;;;1.35;;
52248;SDS011;38541;48.130;8.378;2023-07-20T12:20:25;1.63;;;1.45;;
52248;SDS011;38541;48.130;8.378;2023-07-20T12:22:56;1.67;;;1.17;;
52248;SDS011;38541;48.130;8.378;2023-07-20T12:25:44;2.22;;;1.40;;
52248;SDS011;38541;48.130;8.378;2023-07-20T12:28:16;1.98;;;1.48;;
52248;SDS011;38541;48.130;8.378;2023-07-20T12:30:44;1.20;;;1.10;;
52248;SDS011;38541;48.130;8.378;2023-07-20T12:33:12;1.35;;;1.25;;
52248;SDS011;38541;48.130;8.378;2023-07-20T12:35:42;1.25;;;1.00;;
52248;SDS011;38541;48.130;8.378;2023-07-20T12:38:12;1.35;;;1.25;;
52248;SDS011;38541;48.130;8.378;2023-07-20T12:40:38;1.45;;;1.35;;
52248;SDS011;38541;48.130;8.378;2023-07-20T12:43:06;2.15;;;1.48;;
52248;SDS011;38541;48.130;8.378;2023-07-20T12:45:33;1.30;;;1.20;;
52248;SDS011;38541;48.130;8.378;2023-07-20T12:48:00;1.67;;;1.40;;
52248;SDS011;38541;48.130;8.378;2023-07-20T12:50:26;1.42;;;1.20;;
52248;SDS011;38541;48.130;8.378;2023-07-20T12:52:53;1.30;;;1.20;;
52248;SDS011;38541;48.130;8.378;2023-07-20T12:55:20;1.50;;;1.40;;
52248;SDS011;38541;48.130;8.378;2023-07-20T12:57:46;1.20;;;1.10;;
52248;SDS011;38541;48.130;8.378;2023-07-20T13:00:13;1.35;;;1.25;;
52248;SDS011;38541;48.130;8.378;2023-07-20T13:02:40;1.70;;;1.60;;
52248;SDS011;38541;48.130;8.378;2023-07-20T13:05:08;2.70;;;1.55;;
52248;SDS011;38541;48.130;8.378;2023-07-20T13:07:38;1.73;;;1.38;;
52248;SDS011;38541;48.130;8.378;2023-07-20T13:10:09;1.50;;;1.10;;
52248;SDS011;38541;48.130;8.378;2023-07-20T13:12:37;1.38;;;1.25;;
52248;SDS011;38541;48.130;8.378;2023-07-20T13:15:05;1.20;;;1.10;;
52248;SDS011;38541;48.130;8.378;2023-07-20T13:17:40;1.15;;;1.10;;
52248;SDS011;38541;48.130;8.378;2023-07-20T13:20:07;1.10;;;1.00;;
52248;SDS011;38541;48.130;8.378;2023-07-20T13:22:37;1.55;;;1.40;;
52248;SDS011;38541;48.130;8.378;2023-07-20T13:25:04;1.20;;;1.20;;
52248;SDS011;38541;48.130;8.378;2023-07-20T13:27:31;1.38;;;1.17;;
52248;SDS011;38541;48.130;8.378;2023-07-20T13:29:58;1.27;;;1.10;;
52248;SDS011;38541;48.130;8.378;2023-07-20T13:32:28;1.95;;;1.42;;
52248;SDS011;38541;48.130;8.378;2023-07-20T13:34:59;1.23;;;1.20;;
52248;SDS011;38541;48.130;8.378;2023-07-20T13:37:26;1.30;;;1.20;;
52248;SDS011;38541;48.130;8.378;2023-07-20T13:39:53;1.33;;;1.23;;
52248;SDS011;38541;48.130;8.378;2023-07-20T13:42:20;1.40;;;1.30;;
52248;SDS011;38541;48.130;8.378;2023-07-20T13:44:48;1.20;;;1.20;;
52248;SDS011;38541;48.130;8.378;2023-07-20T13:47:14;2.30;;;1.30;;
52248;SDS011;38541;48.130;8.378;2023-07-20T13:49:44;1.25;;;1.15;;
52248;SDS011;38541;48.130;8.378;2023-07-20T13:52:13;2.55;;;1.85;;
52248;SDS011;38541;48.130;8.378;2023-07-20T13:54:43;1.65;;;1.40;;
52248;SDS011;38541;48.130;8.378;2023-07-20T13:57:13;1.88;;;1.40;;
52248;SDS011;38541;48.130;8.378;2023-07-20T13:59:41;1.45;;;1.23;;
52248;SDS011;38541;48.130;8.378;2023-07-20T14:02:08;1.75;;;1.63;;
52248;SDS011;38541;48.130;8.378;2023-07-20T14:04:37;1.45;;;1.25;;
52248;SDS011;38541;48.130;8.378;2023-07-20T14:07:04;1.60;;;1.30;;
52248;SDS011;38541;48.130;8.378;2023-07-20T14:09:31;1.00;;;1.00;;
52248;SDS011;38541;48.130;8.378;2023-07-20T14:11:58;1.95;;;1.30;;
52248;SDS011;38541;48.130;8.378;2023-07-20T14:14:28;1.50;;;1.40;;
52248;SDS011;38541;48.130;8.378;2023-07-20T14:16:54;1.45;;;1.15;;
52248;SDS011;38541;48.130;8.378;2023-07-20T14:19:22;2.85;;;1.20;;
52248;SDS011;38541;48.130;8.378;2023-07-20T14:21:49;1.27;;;1.17;;
52248;SDS011;38541;48.130;8.378;2023-07-20T14:24:15;1.27;;;1.17;;
52248;SDS011;38541;48.130;8.378;2023-07-20T14:26:44;1.80;;;1.33;;
52248;SDS011;38541;48.130;8.378;2023-07-20T14:29:11;1.60;;;1.50;;
52248;SDS011;38541;48.130;8.378;2023-07-20T14:31:38;1.50;;;1.40;;
52248;SDS011;38541;48.130;8.378;2023-07-20T14:34:05;1.98;;;1.33;;
52248;SDS011;38541;48.130;8.378;2023-07-20T14:36:31;1.30;;;1.20;;
52248;SDS011;38541;48.130;8.378;2023-07-20T14:39:00;1.95;;;1.70;;
52248;SDS011;38541;48.130;8.378;2023-07-20T14:41:26;1.75;;;1.38;;
52248;SDS011;38541;48.130;8.378;2023-07-20T14:43:53;2.08;;;1.65;;
52248;SDS011;38541;48.130;8.378;2023-07-20T14:46:20;2.78;;;1.95;;
52248;SDS011;38541;48.130;8.378;2023-07-20T14:48:47;1.35;;;1.25;;
52248;SDS011;38541;48.130;8.378;2023-07-20T14:51:14;1.23;;;1.00;;
52248;SDS011;38541;48.130;8.378;2023-07-20T14:53:40;2.15;;;1.10;;
52248;SDS011;38541;48.130;8.378;2023-07-20T14:56:07;2.58;;;1.13;;
52248;SDS011;38541;48.130;8.378;2023-07-20T14:58:34;1.70;;;0.90;;
52248;SDS011;38541;48.130;8.378;2023-07-20T15:01:02;1.88;;;1.27;;
52248;SDS011;38541;48.130;8.378;2023-07-20T15:03:29;1.55;;;1.20;;
52248;SDS011;38541;48.130;8.378;2023-07-20T15:05:57;2.22;;;1.30;;
52248;SDS011;38541;48.130;8.378;2023-07-20T15:08:24;1.27;;;1.17;;
52248;SDS011;38541;48.130;8.378;2023-07-20T15:10:51;1.75;;;1.60;;
52248;SDS011;38541;48.130;8.378;2023-07-20T15:13:17;1.48;;;1.38;;
52248;SDS011;38541;48.130;8.378;2023-07-20T15:15:44;2.25;;;1.10;;
52248;SDS011;38541;48.130;8.378;2023-07-20T15:18:10;1.17;;;1.08;;
52248;SDS011;38541;48.130;8.378;2023-07-20T15:20:37;1.25;;;1.15;;
52248;SDS011;38541;48.130;8.378;2023-07-20T15:23:04;1.45;;;1.30;;